Terminal Aerodrome Forecast
Issued by NWS

Home | Current Version | Previous Version | Text Only | Print | Product List | Glossary On
Versions: 1 2 3 4 5 6 7 8 9 10 11 12 13 14 15 16 17 18 19
000
FTUS43 KIND 300521
TAFHUF
TAF
KHUF 300521Z 3006/3106 29003KT P6SM SCT080
     FM301500 27007KT P6SM FEW200
     FM301800 27010G19KT P6SM FEW250
     FM310000 26006KT P6SM SCT045
     FM310200 23004KT P6SM BKN040=

USA.gov is the U.S. government's official web portal to all federal, state and local government web resources and services.